sensor_id;sensor_type;location;lat;lon;timestamp;P1;durP1;ratioP1;P2;durP2;ratioP2
22525;SDS011;11429;50.842;4.386;2023-06-10T00:00:41;9.57;;;6.78;;
22525;SDS011;11429;50.842;4.386;2023-06-10T00:03:07;8.70;;;7.07;;
22525;SDS011;11429;50.842;4.386;2023-06-10T00:05:34;8.75;;;7.35;;
22525;SDS011;11429;50.842;4.386;2023-06-10T00:08:01;8.38;;;7.10;;
22525;SDS011;11429;50.842;4.386;2023-06-10T00:10:32;8.52;;;7.50;;
22525;SDS011;11429;50.842;4.386;2023-06-10T00:13:00;9.93;;;8.20;;
22525;SDS011;11429;50.842;4.386;2023-06-10T00:15:26;11.32;;;7.80;;
22525;SDS011;11429;50.842;4.386;2023-06-10T00:17:51;9.93;;;7.53;;
22525;SDS011;11429;50.842;4.386;2023-06-10T00:20:18;9.15;;;7.53;;
22525;SDS011;11429;50.842;4.386;2023-06-10T00:22:43;11.25;;;7.90;;
22525;SDS011;11429;50.842;4.386;2023-06-10T00:25:10;9.25;;;7.60;;
22525;SDS011;11429;50.842;4.386;2023-06-10T00:27:36;10.90;;;7.90;;
22525;SDS011;11429;50.842;4.386;2023-06-10T00:30:05;8.50;;;7.28;;
22525;SDS011;11429;50.842;4.386;2023-06-10T00:32:35;9.27;;;8.05;;
22525;SDS011;11429;50.842;4.386;2023-06-10T00:35:02;10.93;;;7.75;;
22525;SDS011;11429;50.842;4.386;2023-06-10T00:37:28;9.40;;;7.43;;
22525;SDS011;11429;50.842;4.386;2023-06-10T00:39:55;9.77;;;8.05;;
22525;SDS011;11429;50.842;4.386;2023-06-10T00:42:21;9.70;;;8.07;;
22525;SDS011;11429;50.842;4.386;2023-06-10T00:44:49;10.30;;;7.95;;
22525;SDS011;11429;50.842;4.386;2023-06-10T00:47:19;8.05;;;7.35;;
22525;SDS011;11429;50.842;4.386;2023-06-10T00:49:45;8.38;;;7.57;;
22525;SDS011;11429;50.842;4.386;2023-06-10T00:52:12;11.70;;;8.07;;
22525;SDS011;11429;50.842;4.386;2023-06-10T00:54:40;10.93;;;8.07;;
22525;SDS011;11429;50.842;4.386;2023-06-10T00:57:06;8.88;;;7.97;;
22525;SDS011;11429;50.842;4.386;2023-06-10T00:59:32;12.73;;;8.43;;
22525;SDS011;11429;50.842;4.386;2023-06-10T01:01:58;10.25;;;8.07;;
22525;SDS011;11429;50.842;4.386;2023-06-10T01:04:24;8.48;;;7.55;;
22525;SDS011;11429;50.842;4.386;2023-06-10T01:15:13;8.77;;;7.88;;
22525;SDS011;11429;50.842;4.386;2023-06-10T01:17:55;10.85;;;8.07;;
22525;SDS011;11429;50.842;4.386;2023-06-10T01:20:23;9.52;;;7.95;;
22525;SDS011;11429;50.842;4.386;2023-06-10T01:22:51;9.40;;;7.78;;
22525;SDS011;11429;50.842;4.386;2023-06-10T01:25:20;9.68;;;7.60;;
22525;SDS011;11429;50.842;4.386;2023-06-10T01:27:53;10.85;;;7.65;;
22525;SDS011;11429;50.842;4.386;2023-06-10T01:33:19;9.48;;;8.00;;
22525;SDS011;11429;50.842;4.386;2023-06-10T01:35:52;11.05;;;8.43;;
22525;SDS011;11429;50.842;4.386;2023-06-10T01:38:19;9.27;;;8.00;;
22525;SDS011;11429;50.842;4.386;2023-06-10T01:40:45;11.15;;;8.65;;
22525;SDS011;11429;50.842;4.386;2023-06-10T01:43:13;10.18;;;8.40;;
22525;SDS011;11429;50.842;4.386;2023-06-10T01:45:38;11.15;;;8.20;;
22525;SDS011;11429;50.842;4.386;2023-06-10T01:48:04;10.77;;;7.95;;
22525;SDS011;11429;50.842;4.386;2023-06-10T01:50:30;9.98;;;8.30;;
22525;SDS011;11429;50.842;4.386;2023-06-10T01:52:57;8.75;;;7.25;;
22525;SDS011;11429;50.842;4.386;2023-06-10T01:55:23;10.23;;;8.10;;
22525;SDS011;11429;50.842;4.386;2023-06-10T01:57:49;9.90;;;8.45;;
22525;SDS011;11429;50.842;4.386;2023-06-10T02:00:14;9.25;;;8.02;;
22525;SDS011;11429;50.842;4.386;2023-06-10T02:02:40;9.18;;;7.70;;
22525;SDS011;11429;50.842;4.386;2023-06-10T02:05:09;10.43;;;8.25;;
22525;SDS011;11429;50.842;4.386;2023-06-10T02:07:35;10.43;;;8.68;;
22525;SDS011;11429;50.842;4.386;2023-06-10T02:10:00;9.23;;;8.10;;
22525;SDS011;11429;50.842;4.386;2023-06-10T02:12:26;8.55;;;7.85;;
22525;SDS011;11429;50.842;4.386;2023-06-10T02:14:52;9.90;;;8.55;;
22525;SDS011;11429;50.842;4.386;2023-06-10T02:17:17;10.25;;;8.43;;
22525;SDS011;11429;50.842;4.386;2023-06-10T02:19:44;9.25;;;8.35;;
22525;SDS011;11429;50.842;4.386;2023-06-10T02:22:17;11.20;;;8.85;;
22525;SDS011;11429;50.842;4.386;2023-06-10T02:24:46;9.25;;;8.35;;
22525;SDS011;11429;50.842;4.386;2023-06-10T02:27:12;9.77;;;8.43;;
22525;SDS011;11429;50.842;4.386;2023-06-10T02:29:38;10.02;;;8.35;;
22525;SDS011;11429;50.842;4.386;2023-06-10T02:32:04;9.18;;;8.25;;
22525;SDS011;11429;50.842;4.386;2023-06-10T02:34:30;12.93;;;8.43;;
22525;SDS011;11429;50.842;4.386;2023-06-10T02:36:56;9.60;;;8.60;;
22525;SDS011;11429;50.842;4.386;2023-06-10T03:10:19;10.25;;;9.07;;
22525;SDS011;11429;50.842;4.386;2023-06-10T03:12:44;12.45;;;9.20;;
22525;SDS011;11429;50.842;4.386;2023-06-10T03:15:10;10.52;;;9.50;;
22525;SDS011;11429;50.842;4.386;2023-06-10T03:17:36;9.93;;;8.55;;
22525;SDS011;11429;50.842;4.386;2023-06-10T03:20:02;10.95;;;8.50;;
22525;SDS011;11429;50.842;4.386;2023-06-10T03:22:30;11.93;;;9.00;;
22525;SDS011;11429;50.842;4.386;2023-06-10T03:24:56;12.85;;;9.30;;
22525;SDS011;11429;50.842;4.386;2023-06-10T03:27:22;10.45;;;8.80;;
22525;SDS011;11429;50.842;4.386;2023-06-10T03:29:48;10.35;;;9.18;;
22525;SDS011;11429;50.842;4.386;2023-06-10T03:32:13;9.88;;;8.85;;
22525;SDS011;11429;50.842;4.386;2023-06-10T03:34:40;10.60;;;9.50;;
22525;SDS011;11429;50.842;4.386;2023-06-10T03:37:05;10.68;;;9.55;;
22525;SDS011;11429;50.842;4.386;2023-06-10T03:39:31;11.23;;;9.13;;
22525;SDS011;11429;50.842;4.386;2023-06-10T03:41:57;12.35;;;9.48;;
22525;SDS011;11429;50.842;4.386;2023-06-10T03:44:24;10.88;;;9.48;;
22525;SDS011;11429;50.842;4.386;2023-06-10T03:46:51;10.40;;;9.10;;
22525;SDS011;11429;50.842;4.386;2023-06-10T03:49:17;11.48;;;9.07;;
22525;SDS011;11429;50.842;4.386;2023-06-10T03:51:43;11.30;;;9.27;;
22525;SDS011;11429;50.842;4.386;2023-06-10T03:54:08;10.27;;;9.15;;
22525;SDS011;11429;50.842;4.386;2023-06-10T03:56:35;10.00;;;9.00;;
22525;SDS011;11429;50.842;4.386;2023-06-10T03:59:00;12.10;;;9.38;;
22525;SDS011;11429;50.842;4.386;2023-06-10T04:01:26;11.48;;;9.35;;
22525;SDS011;11429;50.842;4.386;2023-06-10T04:03:52;13.60;;;10.00;;
22525;SDS011;11429;50.842;4.386;2023-06-10T04:06:19;12.02;;;9.27;;
22525;SDS011;11429;50.842;4.386;2023-06-10T04:08:47;12.02;;;9.45;;
22525;SDS011;11429;50.842;4.386;2023-06-10T04:11:13;10.95;;;9.70;;
22525;SDS011;11429;50.842;4.386;2023-06-10T04:13:39;10.63;;;9.60;;
22525;SDS011;11429;50.842;4.386;2023-06-10T04:16:05;13.00;;;9.60;;
22525;SDS011;11429;50.842;4.386;2023-06-10T04:18:30;10.48;;;9.32;;
22525;SDS011;11429;50.842;4.386;2023-06-10T04:20:56;11.68;;;9.65;;
22525;SDS011;11429;50.842;4.386;2023-06-10T04:23:22;13.15;;;9.73;;
22525;SDS011;11429;50.842;4.386;2023-06-10T04:25:48;13.82;;;10.43;;
22525;SDS011;11429;50.842;4.386;2023-06-10T04:28:13;10.85;;;9.73;;
22525;SDS011;11429;50.842;4.386;2023-06-10T04:30:39;11.57;;;10.35;;
22525;SDS011;11429;50.842;4.386;2023-06-10T04:33:06;11.32;;;10.15;;
22525;SDS011;11429;50.842;4.386;2023-06-10T04:35:34;12.63;;;10.45;;
22525;SDS011;11429;50.842;4.386;2023-06-10T04:37:59;12.50;;;10.25;;
22525;SDS011;11429;50.842;4.386;2023-06-10T04:40:27;11.90;;;9.73;;
22525;SDS011;11429;50.842;4.386;2023-06-10T04:42:53;12.70;;;9.95;;
22525;SDS011;11429;50.842;4.386;2023-06-10T04:45:19;13.43;;;10.30;;
22525;SDS011;11429;50.842;4.386;2023-06-10T04:47:44;11.05;;;9.95;;
22525;SDS011;11429;50.842;4.386;2023-06-10T04:50:10;11.70;;;9.77;;
22525;SDS011;11429;50.842;4.386;2023-06-10T04:52:36;10.40;;;9.38;;
22525;SDS011;11429;50.842;4.386;2023-06-10T04:55:01;11.23;;;9.98;;
22525;SDS011;11429;50.842;4.386;2023-06-10T04:57:27;13.52;;;10.90;;
22525;SDS011;11429;50.842;4.386;2023-06-10T04:59:53;12.65;;;9.77;;
22525;SDS011;11429;50.842;4.386;2023-06-10T05:02:19;12.65;;;9.82;;
22525;SDS011;11429;50.842;4.386;2023-06-10T05:04:45;11.85;;;9.70;;
22525;SDS011;11429;50.842;4.386;2023-06-10T05:07:10;12.55;;;9.43;;
22525;SDS011;11429;50.842;4.386;2023-06-10T05:09:36;10.82;;;9.15;;
22525;SDS011;11429;50.842;4.386;2023-06-10T05:12:03;11.02;;;9.65;;
22525;SDS011;11429;50.842;4.386;2023-06-10T05:14:29;11.13;;;9.93;;
22525;SDS011;11429;50.842;4.386;2023-06-10T05:16:56;10.95;;;9.77;;
22525;SDS011;11429;50.842;4.386;2023-06-10T05:19:22;10.18;;;8.65;;
22525;SDS011;11429;50.842;4.386;2023-06-10T05:21:47;15.27;;;9.27;;
22525;SDS011;11429;50.842;4.386;2023-06-10T05:24:13;12.75;;;8.90;;
22525;SDS011;11429;50.842;4.386;2023-06-10T05:26:39;11.35;;;8.85;;
22525;SDS011;11429;50.842;4.386;2023-06-10T05:29:06;13.10;;;9.45;;
22525;SDS011;11429;50.842;4.386;2023-06-10T05:31:32;10.20;;;9.07;;
22525;SDS011;11429;50.842;4.386;2023-06-10T05:33:58;13.20;;;8.95;;
22525;SDS011;11429;50.842;4.386;2023-06-10T05:36:24;13.10;;;9.05;;
22525;SDS011;11429;50.842;4.386;2023-06-10T05:38:52;13.00;;;8.95;;
22525;SDS011;11429;50.842;4.386;2023-06-10T05:41:18;10.55;;;9.32;;
22525;SDS011;11429;50.842;4.386;2023-06-10T05:43:43;10.90;;;9.15;;
22525;SDS011;11429;50.842;4.386;2023-06-10T05:46:09;12.45;;;8.90;;
22525;SDS011;11429;50.842;4.386;2023-06-10T05:48:35;14.75;;;9.38;;
22525;SDS011;11429;50.842;4.386;2023-06-10T05:51:01;13.20;;;9.35;;
22525;SDS011;11429;50.842;4.386;2023-06-10T05:53:26;13.50;;;9.43;;
22525;SDS011;11429;50.842;4.386;2023-06-10T05:55:52;12.80;;;9.00;;
22525;SDS011;11429;50.842;4.386;2023-06-10T05:58:22;10.50;;;9.35;;
22525;SDS011;11429;50.842;4.386;2023-06-10T06:00:48;11.98;;;9.07;;
22525;SDS011;11429;50.842;4.386;2023-06-10T06:03:13;12.57;;;9.48;;
22525;SDS011;11429;50.842;4.386;2023-06-10T06:05:39;11.73;;;9.02;;
22525;SDS011;11429;50.842;4.386;2023-06-10T06:08:05;10.82;;;8.65;;
22525;SDS011;11429;50.842;4.386;2023-06-10T06:10:30;10.88;;;8.93;;
22525;SDS011;11429;50.842;4.386;2023-06-10T06:12:56;14.73;;;8.55;;
22525;SDS011;11429;50.842;4.386;2023-06-10T06:15:22;12.57;;;8.57;;
22525;SDS011;11429;50.842;4.386;2023-06-10T06:17:48;15.73;;;9.45;;
22525;SDS011;11429;50.842;4.386;2023-06-10T06:20:13;10.60;;;8.43;;
22525;SDS011;11429;50.842;4.386;2023-06-10T06:22:39;9.45;;;8.55;;
22525;SDS011;11429;50.842;4.386;2023-06-10T06:25:05;20.45;;;9.40;;
22525;SDS011;11429;50.842;4.386;2023-06-10T06:27:31;9.85;;;8.85;;
22525;SDS011;11429;50.842;4.386;2023-06-10T06:29:57;15.23;;;9.20;;
22525;SDS011;11429;50.842;4.386;2023-06-10T06:32:22;16.08;;;8.55;;
22525;SDS011;11429;50.842;4.386;2023-06-10T06:34:51;9.40;;;8.43;;
22525;SDS011;11429;50.842;4.386;2023-06-10T06:37:20;12.55;;;8.77;;
22525;SDS011;11429;50.842;4.386;2023-06-10T06:39:47;9.00;;;8.10;;
22525;SDS011;11429;50.842;4.386;2023-06-10T06:42:13;15.90;;;8.52;;
22525;SDS011;11429;50.842;4.386;2023-06-10T06:44:39;10.75;;;8.45;;
22525;SDS011;11429;50.842;4.386;2023-06-10T06:47:05;10.32;;;8.45;;
22525;SDS011;11429;50.842;4.386;2023-06-10T06:49:31;10.27;;;8.40;;
22525;SDS011;11429;50.842;4.386;2023-06-10T06:51:56;10.70;;;8.68;;
22525;SDS011;11429;50.842;4.386;2023-06-10T06:54:22;10.02;;;8.65;;
22525;SDS011;11429;50.842;4.386;2023-06-10T06:56:48;12.50;;;11.32;;
22525;SDS011;11429;50.842;4.386;2023-06-10T06:59:13;10.63;;;8.48;;
22525;SDS011;11429;50.842;4.386;2023-06-10T07:01:39;11.13;;;7.85;;
22525;SDS011;11429;50.842;4.386;2023-06-10T07:04:05;13.77;;;8.45;;
22525;SDS011;11429;50.842;4.386;2023-06-10T07:06:31;8.88;;;7.97;;
22525;SDS011;11429;50.842;4.386;2023-06-10T07:08:56;11.82;;;8.45;;
22525;SDS011;11429;50.842;4.386;2023-06-10T07:11:22;9.35;;;8.35;;
22525;SDS011;11429;50.842;4.386;2023-06-10T07:13:48;10.25;;;8.00;;
22525;SDS011;11429;50.842;4.386;2023-06-10T07:16:14;16.23;;;8.32;;
22525;SDS011;11429;50.842;4.386;2023-06-10T07:18:40;8.73;;;7.75;;
22525;SDS011;11429;50.842;4.386;2023-06-10T07:21:05;10.70;;;8.13;;
22525;SDS011;11429;50.842;4.386;2023-06-10T07:23:31;10.80;;;8.00;;
22525;SDS011;11429;50.842;4.386;2023-06-10T07:25:57;9.75;;;7.95;;
22525;SDS011;11429;50.842;4.386;2023-06-10T07:28:22;11.85;;;7.97;;
22525;SDS011;11429;50.842;4.386;2023-06-10T07:30:48;11.15;;;7.55;;
22525;SDS011;11429;50.842;4.386;2023-06-10T07:33:13;8.40;;;7.53;;
22525;SDS011;11429;50.842;4.386;2023-06-10T07:35:39;10.52;;;8.00;;
22525;SDS011;11429;50.842;4.386;2023-06-10T07:38:05;9.00;;;7.57;;
22525;SDS011;11429;50.842;4.386;2023-06-10T07:40:30;11.32;;;7.40;;
22525;SDS011;11429;50.842;4.386;2023-06-10T07:42:56;8.25;;;7.45;;
22525;SDS011;11429;50.842;4.386;2023-06-10T07:45:22;12.95;;;7.82;;
22525;SDS011;11429;50.842;4.386;2023-06-10T07:47:47;11.05;;;7.43;;
22525;SDS011;11429;50.842;4.386;2023-06-10T07:50:13;23.95;;;8.25;;
22525;SDS011;11429;50.842;4.386;2023-06-10T07:52:39;9.20;;;7.30;;
22525;SDS011;11429;50.842;4.386;2023-06-10T07:55:05;11.90;;;7.63;;
22525;SDS011;11429;50.842;4.386;2023-06-10T07:57:31;9.00;;;8.20;;
22525;SDS011;11429;50.842;4.386;2023-06-10T07:59:59;8.20;;;7.43;;
22525;SDS011;11429;50.842;4.386;2023-06-10T08:02:27;11.23;;;7.30;;
22525;SDS011;11429;50.842;4.386;2023-06-10T08:04:53;9.27;;;7.22;;
22525;SDS011;11429;50.842;4.386;2023-06-10T08:07:18;10.93;;;7.45;;
22525;SDS011;11429;50.842;4.386;2023-06-10T08:09:44;8.43;;;7.10;;
22525;SDS011;11429;50.842;4.386;2023-06-10T08:12:10;9.18;;;6.60;;
22525;SDS011;11429;50.842;4.386;2023-06-10T08:14:35;14.93;;;6.85;;
22525;SDS011;11429;50.842;4.386;2023-06-10T08:17:02;17.13;;;7.30;;
22525;SDS011;11429;50.842;4.386;2023-06-10T08:19:30;15.05;;;11.95;;
22525;SDS011;11429;50.842;4.386;2023-06-10T08:21:56;12.48;;;10.38;;
22525;SDS011;11429;50.842;4.386;2023-06-10T08:24:21;11.57;;;6.80;;
22525;SDS011;11429;50.842;4.386;2023-06-10T08:26:47;11.73;;;7.40;;
22525;SDS011;11429;50.842;4.386;2023-06-10T08:29:13;9.93;;;6.55;;
22525;SDS011;11429;50.842;4.386;2023-06-10T08:31:42;10.77;;;6.90;;
22525;SDS011;11429;50.842;4.386;2023-06-10T08:34:08;9.65;;;6.40;;
22525;SDS011;11429;50.842;4.386;2023-06-10T08:36:34;10.27;;;7.15;;
22525;SDS011;11429;50.842;4.386;2023-06-10T08:39:00;12.65;;;6.70;;
22525;SDS011;11429;50.842;4.386;2023-06-10T08:41:28;9.65;;;7.25;;
22525;SDS011;11429;50.842;4.386;2023-06-10T08:46:50;14.73;;;7.00;;
22525;SDS011;11429;50.842;4.386;2023-06-10T08:49:19;9.35;;;7.10;;
22525;SDS011;11429;50.842;4.386;2023-06-10T08:51:51;9.40;;;5.93;;
22525;SDS011;11429;50.842;4.386;2023-06-10T08:54:25;8.35;;;6.43;;
22525;SDS011;11429;50.842;4.386;2023-06-10T08:56:55;10.23;;;6.32;;
22525;SDS011;11429;50.842;4.386;2023-06-10T08:59:28;11.82;;;6.55;;
22525;SDS011;11429;50.842;4.386;2023-06-10T09:01:59;12.98;;;6.72;;
22525;SDS011;11429;50.842;4.386;2023-06-10T09:04:28;6.80;;;6.10;;
22525;SDS011;11429;50.842;4.386;2023-06-10T09:06:56;7.38;;;6.07;;
22525;SDS011;11429;50.842;4.386;2023-06-10T09:09:23;12.65;;;6.25;;
22525;SDS011;11429;50.842;4.386;2023-06-10T09:11:57;10.82;;;6.10;;
22525;SDS011;11429;50.842;4.386;2023-06-10T09:14:23;14.75;;;6.45;;
22525;SDS011;11429;50.842;4.386;2023-06-10T09:16:49;10.40;;;6.90;;
22525;SDS011;11429;50.842;4.386;2023-06-10T09:19:18;8.98;;;6.57;;
22525;SDS011;11429;50.842;4.386;2023-06-10T09:21:46;7.35;;;6.63;;
22525;SDS011;11429;50.842;4.386;2023-06-10T09:24:11;9.13;;;8.13;;
22525;SDS011;11429;50.842;4.386;2023-06-10T09:26:37;7.13;;;6.43;;
22525;SDS011;11429;50.842;4.386;2023-06-10T09:29:07;6.85;;;6.13;;
22525;SDS011;11429;50.842;4.386;2023-06-10T09:31:34;10.10;;;6.07;;
22525;SDS011;11429;50.842;4.386;2023-06-10T09:34:07;8.38;;;6.60;;
22525;SDS011;11429;50.842;4.386;2023-06-10T09:36:35;8.68;;;6.30;;
22525;SDS011;11429;50.842;4.386;2023-06-10T09:39:01;7.90;;;6.43;;
22525;SDS011;11429;50.842;4.386;2023-06-10T09:41:34;8.38;;;6.00;;
22525;SDS011;11429;50.842;4.386;2023-06-10T09:44:00;7.43;;;6.10;;
22525;SDS011;11429;50.842;4.386;2023-06-10T09:46:33;6.60;;;5.53;;
22525;SDS011;11429;50.842;4.386;2023-06-10T09:48:59;8.98;;;6.32;;
22525;SDS011;11429;50.842;4.386;2023-06-10T09:51:28;9.40;;;6.10;;
22525;SDS011;11429;50.842;4.386;2023-06-10T09:53:54;7.18;;;6.03;;
22525;SDS011;11429;50.842;4.386;2023-06-10T09:56:20;11.52;;;6.80;;
22525;SDS011;11429;50.842;4.386;2023-06-10T09:58:49;7.50;;;6.00;;
22525;SDS011;11429;50.842;4.386;2023-06-10T10:01:18;7.60;;;6.10;;
22525;SDS011;11429;50.842;4.386;2023-06-10T10:03:47;6.75;;;6.05;;
22525;SDS011;11429;50.842;4.386;2023-06-10T10:06:16;8.23;;;5.93;;
22525;SDS011;11429;50.842;4.386;2023-06-10T10:09:03;8.25;;;6.07;;
22525;SDS011;11429;50.842;4.386;2023-06-10T10:11:32;6.70;;;6.07;;
22525;SDS011;11429;50.842;4.386;2023-06-10T10:13:59;8.30;;;6.68;;
22525;SDS011;11429;50.842;4.386;2023-06-10T10:16:39;8.27;;;5.93;;
22525;SDS011;11429;50.842;4.386;2023-06-10T10:19:31;6.15;;;5.55;;
22525;SDS011;11429;50.842;4.386;2023-06-10T10:22:04;8.35;;;5.70;;
22525;SDS011;11429;50.842;4.386;2023-06-10T10:27:48;17.00;;;6.55;;
22525;SDS011;11429;50.842;4.386;2023-06-10T10:30:02;17.77;;;6.30;;
22525;SDS011;11429;50.842;4.386;2023-06-10T10:32:38;10.10;;;6.50;;
22525;SDS011;11429;50.842;4.386;2023-06-10T10:50:43;9.35;;;6.28;;
22525;SDS011;11429;50.842;4.386;2023-06-10T10:53:31;26.70;;;6.55;;
22525;SDS011;11429;50.842;4.386;2023-06-10T10:56:04;6.63;;;5.93;;
22525;SDS011;11429;50.842;4.386;2023-06-10T10:58:35;9.82;;;5.85;;
22525;SDS011;11429;50.842;4.386;2023-06-10T11:01:43;13.40;;;5.30;;
22525;SDS011;11429;50.842;4.386;2023-06-10T11:04:17;12.43;;;5.50;;
22525;SDS011;11429;50.842;4.386;2023-06-10T11:17:03;6.38;;;5.70;;
22525;SDS011;11429;50.842;4.386;2023-06-10T11:19:45;10.30;;;5.97;;
22525;SDS011;11429;50.842;4.386;2023-06-10T11:22:15;14.52;;;5.70;;
22525;SDS011;11429;50.842;4.386;2023-06-10T11:27:18;16.02;;;5.38;;
22525;SDS011;11429;50.842;4.386;2023-06-10T11:32:32;7.82;;;5.32;;
22525;SDS011;11429;50.842;4.386;2023-06-10T11:35:02;10.80;;;6.00;;
22525;SDS011;11429;50.842;4.386;2023-06-10T11:37:29;8.52;;;5.90;;
22525;SDS011;11429;50.842;4.386;2023-06-10T11:39:55;12.32;;;5.80;;
22525;SDS011;11429;50.842;4.386;2023-06-10T11:42:21;13.05;;;5.97;;
22525;SDS011;11429;50.842;4.386;2023-06-10T11:44:51;8.63;;;6.20;;
22525;SDS011;11429;50.842;4.386;2023-06-10T11:47:18;9.63;;;6.40;;
22525;SDS011;11429;50.842;4.386;2023-06-10T11:49:45;11.18;;;5.85;;
22525;SDS011;11429;50.842;4.386;2023-06-10T11:52:25;7.90;;;5.97;;
22525;SDS011;11429;50.842;4.386;2023-06-10T11:54:54;13.80;;;5.93;;
22525;SDS011;11429;50.842;4.386;2023-06-10T12:02:26;8.90;;;6.13;;
22525;SDS011;11429;50.842;4.386;2023-06-10T12:04:52;41.97;;;8.32;;
22525;SDS011;11429;50.842;4.386;2023-06-10T12:07:18;11.70;;;5.82;;
22525;SDS011;11429;50.842;4.386;2023-06-10T12:09:45;9.05;;;6.28;;
22525;SDS011;11429;50.842;4.386;2023-06-10T12:12:14;9.35;;;6.10;;
22525;SDS011;11429;50.842;4.386;2023-06-10T12:17:23;9.18;;;6.75;;
22525;SDS011;11429;50.842;4.386;2023-06-10T12:19:56;21.90;;;7.07;;
22525;SDS011;11429;50.842;4.386;2023-06-10T12:22:22;15.48;;;7.90;;
22525;SDS011;11429;50.842;4.386;2023-06-10T12:24:59;8.43;;;5.80;;
22525;SDS011;11429;50.842;4.386;2023-06-10T12:27:27;8.27;;;5.90;;
22525;SDS011;11429;50.842;4.386;2023-06-10T12:29:55;14.48;;;6.93;;
22525;SDS011;11429;50.842;4.386;2023-06-10T12:32:34;12.02;;;6.53;;
22525;SDS011;11429;50.842;4.386;2023-06-10T12:35:03;13.88;;;6.93;;
22525;SDS011;11429;50.842;4.386;2023-06-10T12:37:30;19.58;;;6.80;;
22525;SDS011;11429;50.842;4.386;2023-06-10T12:40:03;13.55;;;6.57;;
22525;SDS011;11429;50.842;4.386;2023-06-10T12:42:31;13.60;;;6.90;;
22525;SDS011;11429;50.842;4.386;2023-06-10T12:45:01;12.48;;;6.57;;
22525;SDS011;11429;50.842;4.386;2023-06-10T12:47:33;8.45;;;6.05;;
22525;SDS011;11429;50.842;4.386;2023-06-10T12:50:01;9.90;;;6.28;;
22525;SDS011;11429;50.842;4.386;2023-06-10T12:52:28;10.77;;;6.45;;
22525;SDS011;11429;50.842;4.386;2023-06-10T12:54:54;10.98;;;6.80;;
22525;SDS011;11429;50.842;4.386;2023-06-10T12:57:20;16.02;;;6.80;;
22525;SDS011;11429;50.842;4.386;2023-06-10T12:59:47;9.35;;;6.43;;
22525;SDS011;11429;50.842;4.386;2023-06-10T13:15:13;8.55;;;6.45;;
22525;SDS011;11429;50.842;4.386;2023-06-10T14:06:45;15.20;;;6.57;;
22525;SDS011;11429;50.842;4.386;2023-06-10T14:09:12;42.53;;;9.07;;
22525;SDS011;11429;50.842;4.386;2023-06-10T14:11:38;14.52;;;7.20;;
22525;SDS011;11429;50.842;4.386;2023-06-10T14:14:04;11.90;;;7.32;;
22525;SDS011;11429;50.842;4.386;2023-06-10T14:16:30;9.52;;;6.60;;
22525;SDS011;11429;50.842;4.386;2023-06-10T14:18:56;9.30;;;6.50;;
22525;SDS011;11429;50.842;4.386;2023-06-10T14:21:21;14.82;;;7.72;;
22525;SDS011;11429;50.842;4.386;2023-06-10T14:23:47;10.45;;;6.45;;
22525;SDS011;11429;50.842;4.386;2023-06-10T14:26:14;11.55;;;6.22;;
22525;SDS011;11429;50.842;4.386;2023-06-10T14:28:40;11.73;;;7.15;;
22525;SDS011;11429;50.842;4.386;2023-06-10T14:31:05;13.90;;;7.15;;
22525;SDS011;11429;50.842;4.386;2023-06-10T14:33:32;17.63;;;6.53;;
22525;SDS011;11429;50.842;4.386;2023-06-10T14:35:58;16.38;;;7.00;;
22525;SDS011;11429;50.842;4.386;2023-06-10T14:38:24;8.68;;;6.45;;
22525;SDS011;11429;50.842;4.386;2023-06-10T14:40:49;7.32;;;6.53;;
22525;SDS011;11429;50.842;4.386;2023-06-10T14:43:15;6.88;;;6.18;;
22525;SDS011;11429;50.842;4.386;2023-06-10T14:45:41;10.63;;;6.70;;
22525;SDS011;11429;50.842;4.386;2023-06-10T14:48:07;12.35;;;6.63;;
22525;SDS011;11429;50.842;4.386;2023-06-10T14:50:36;35.92;;;8.77;;
22525;SDS011;11429;50.842;4.386;2023-06-10T14:53:02;10.60;;;6.55;;
22525;SDS011;11429;50.842;4.386;2023-06-10T14:55:28;10.25;;;6.35;;
22525;SDS011;11429;50.842;4.386;2023-06-10T14:57:54;10.65;;;7.05;;
22525;SDS011;11429;50.842;4.386;2023-06-10T15:00:21;9.35;;;6.30;;
22525;SDS011;11429;50.842;4.386;2023-06-10T15:02:49;19.35;;;7.15;;
22525;SDS011;11429;50.842;4.386;2023-06-10T15:05:15;8.48;;;6.93;;
22525;SDS011;11429;50.842;4.386;2023-06-10T15:07:41;13.25;;;6.68;;
22525;SDS011;11429;50.842;4.386;2023-06-10T15:10:08;17.58;;;6.70;;
22525;SDS011;11429;50.842;4.386;2023-06-10T15:12:34;13.15;;;6.85;;
22525;SDS011;11429;50.842;4.386;2023-06-10T15:15:00;13.40;;;6.93;;
22525;SDS011;11429;50.842;4.386;2023-06-10T15:17:27;10.38;;;6.53;;
22525;SDS011;11429;50.842;4.386;2023-06-10T15:19:52;12.18;;;7.18;;
22525;SDS011;11429;50.842;4.386;2023-06-10T15:22:18;9.45;;;6.70;;
22525;SDS011;11429;50.842;4.386;2023-06-10T15:24:43;10.90;;;6.68;;
22525;SDS011;11429;50.842;4.386;2023-06-10T15:27:09;12.80;;;6.68;;
22525;SDS011;11429;50.842;4.386;2023-06-10T15:29:35;9.27;;;6.75;;
22525;SDS011;11429;50.842;4.386;2023-06-10T15:32:01;13.48;;;7.35;;
22525;SDS011;11429;50.842;4.386;2023-06-10T15:34:27;14.45;;;6.80;;
22525;SDS011;11429;50.842;4.386;2023-06-10T15:36:52;7.90;;;7.07;;
22525;SDS011;11429;50.842;4.386;2023-06-10T15:39:18;9.60;;;6.63;;
22525;SDS011;11429;50.842;4.386;2023-06-10T15:41:44;8.82;;;6.90;;
22525;SDS011;11429;50.842;4.386;2023-06-10T15:44:10;12.57;;;6.50;;
22525;SDS011;11429;50.842;4.386;2023-06-10T15:46:36;12.27;;;6.75;;
22525;SDS011;11429;50.842;4.386;2023-06-10T15:49:02;13.25;;;7.13;;
22525;SDS011;11429;50.842;4.386;2023-06-10T15:51:28;12.82;;;6.55;;
22525;SDS011;11429;50.842;4.386;2023-06-10T15:53:53;8.73;;;6.53;;
22525;SDS011;11429;50.842;4.386;2023-06-10T15:56:19;11.18;;;7.18;;
22525;SDS011;11429;50.842;4.386;2023-06-10T15:58:46;8.95;;;6.68;;
22525;SDS011;11429;50.842;4.386;2023-06-10T16:01:12;12.80;;;6.60;;
22525;SDS011;11429;50.842;4.386;2023-06-10T16:03:39;9.63;;;6.57;;
22525;SDS011;11429;50.842;4.386;2023-06-10T16:06:05;12.85;;;6.70;;
22525;SDS011;11429;50.842;4.386;2023-06-10T16:08:31;7.68;;;6.78;;
22525;SDS011;11429;50.842;4.386;2023-06-10T16:10:57;12.68;;;6.90;;
22525;SDS011;11429;50.842;4.386;2023-06-10T16:13:23;10.85;;;6.47;;
22525;SDS011;11429;50.842;4.386;2023-06-10T16:15:49;9.88;;;7.15;;
22525;SDS011;11429;50.842;4.386;2023-06-10T16:18:14;15.95;;;6.40;;
22525;SDS011;11429;50.842;4.386;2023-06-10T16:20:40;8.43;;;6.78;;
22525;SDS011;11429;50.842;4.386;2023-06-10T16:23:06;9.35;;;6.75;;
22525;SDS011;11429;50.842;4.386;2023-06-10T16:25:31;11.52;;;6.72;;
22525;SDS011;11429;50.842;4.386;2023-06-10T16:27:59;8.52;;;6.65;;
22525;SDS011;11429;50.842;4.386;2023-06-10T16:30:25;7.93;;;5.82;;
22525;SDS011;11429;50.842;4.386;2023-06-10T16:32:51;11.85;;;6.50;;
22525;SDS011;11429;50.842;4.386;2023-06-10T16:35:17;10.48;;;5.95;;
22525;SDS011;11429;50.842;4.386;2023-06-10T16:37:43;7.55;;;6.85;;
22525;SDS011;11429;50.842;4.386;2023-06-10T16:40:09;10.75;;;7.28;;
22525;SDS011;11429;50.842;4.386;2023-06-10T16:42:35;15.35;;;6.78;;
22525;SDS011;11429;50.842;4.386;2023-06-10T16:45:01;30.02;;;8.07;;
22525;SDS011;11429;50.842;4.386;2023-06-10T16:47:27;18.75;;;7.13;;
22525;SDS011;11429;50.842;4.386;2023-06-10T16:49:53;9.02;;;6.22;;
22525;SDS011;11429;50.842;4.386;2023-06-10T16:52:19;7.40;;;6.38;;
22525;SDS011;11429;50.842;4.386;2023-06-10T16:54:44;12.10;;;7.03;;
22525;SDS011;11429;50.842;4.386;2023-06-10T16:57:10;11.65;;;6.85;;
22525;SDS011;11429;50.842;4.386;2023-06-10T16:59:36;9.65;;;6.20;;
22525;SDS011;11429;50.842;4.386;2023-06-10T17:02:02;22.25;;;7.10;;
22525;SDS011;11429;50.842;4.386;2023-06-10T17:04:28;12.07;;;6.32;;
22525;SDS011;11429;50.842;4.386;2023-06-10T17:06:54;16.92;;;6.32;;